sensor_id;sensor_type;location;lat;lon;timestamp;P1;durP1;ratioP1;P2;durP2;ratioP2
4323;SDS011;2175;51.018;6.994;2023-08-20T00:00:16;12.03;;;10.00;;
4323;SDS011;2175;51.018;6.994;2023-08-20T00:02:43;13.20;;;10.07;;
4323;SDS011;2175;51.018;6.994;2023-08-20T00:05:11;13.10;;;10.03;;
4323;SDS011;2175;51.018;6.994;2023-08-20T00:07:37;12.33;;;10.63;;
4323;SDS011;2175;51.018;6.994;2023-08-20T00:10:03;13.63;;;10.70;;
4323;SDS011;2175;51.018;6.994;2023-08-20T00:12:30;11.30;;;9.73;;
4323;SDS011;2175;51.018;6.994;2023-08-20T00:14:59;12.47;;;10.03;;
4323;SDS011;2175;51.018;6.994;2023-08-20T00:17:36;12.53;;;9.60;;
4323;SDS011;2175;51.018;6.994;2023-08-20T00:20:02;11.63;;;9.77;;
4323;SDS011;2175;51.018;6.994;2023-08-20T00:22:37;14.80;;;10.27;;
4323;SDS011;2175;51.018;6.994;2023-08-20T00:25:04;16.57;;;10.73;;
4323;SDS011;2175;51.018;6.994;2023-08-20T00:27:30;11.00;;;9.63;;
4323;SDS011;2175;51.018;6.994;2023-08-20T00:29:56;12.07;;;10.10;;
4323;SDS011;2175;51.018;6.994;2023-08-20T00:32:22;14.80;;;11.20;;
4323;SDS011;2175;51.018;6.994;2023-08-20T00:34:48;13.73;;;10.50;;
4323;SDS011;2175;51.018;6.994;2023-08-20T00:37:14;12.67;;;10.47;;
4323;SDS011;2175;51.018;6.994;2023-08-20T00:39:40;21.03;;;11.13;;
4323;SDS011;2175;51.018;6.994;2023-08-20T00:42:06;11.40;;;10.17;;
4323;SDS011;2175;51.018;6.994;2023-08-20T00:44:32;13.67;;;10.87;;
4323;SDS011;2175;51.018;6.994;2023-08-20T00:46:59;15.70;;;10.90;;
4323;SDS011;2175;51.018;6.994;2023-08-20T00:49:26;14.40;;;11.43;;
4323;SDS011;2175;51.018;6.994;2023-08-20T00:51:52;17.20;;;11.00;;
4323;SDS011;2175;51.018;6.994;2023-08-20T00:54:19;12.77;;;10.07;;
4323;SDS011;2175;51.018;6.994;2023-08-20T00:56:46;11.00;;;9.70;;
4323;SDS011;2175;51.018;6.994;2023-08-20T00:59:12;11.50;;;9.70;;
4323;SDS011;2175;51.018;6.994;2023-08-20T01:01:39;14.90;;;10.10;;
4323;SDS011;2175;51.018;6.994;2023-08-20T01:04:05;12.43;;;9.20;;
4323;SDS011;2175;51.018;6.994;2023-08-20T01:11:47;12.37;;;9.27;;
4323;SDS011;2175;51.018;6.994;2023-08-20T01:14:15;15.67;;;10.80;;
4323;SDS011;2175;51.018;6.994;2023-08-20T01:16:42;16.43;;;10.10;;
4323;SDS011;2175;51.018;6.994;2023-08-20T01:19:08;13.67;;;10.23;;
4323;SDS011;2175;51.018;6.994;2023-08-20T01:21:39;12.67;;;9.60;;
4323;SDS011;2175;51.018;6.994;2023-08-20T01:29:25;19.30;;;9.70;;
4323;SDS011;2175;51.018;6.994;2023-08-20T01:31:53;14.50;;;9.57;;
4323;SDS011;2175;51.018;6.994;2023-08-20T01:34:19;12.87;;;10.30;;
4323;SDS011;2175;51.018;6.994;2023-08-20T01:36:45;11.73;;;9.70;;
4323;SDS011;2175;51.018;6.994;2023-08-20T01:39:11;13.43;;;9.80;;
4323;SDS011;2175;51.018;6.994;2023-08-20T01:41:38;13.90;;;9.10;;
4323;SDS011;2175;51.018;6.994;2023-08-20T01:44:05;15.27;;;10.73;;
4323;SDS011;2175;51.018;6.994;2023-08-20T01:46:32;16.70;;;9.60;;
4323;SDS011;2175;51.018;6.994;2023-08-20T01:48:58;13.40;;;10.57;;
4323;SDS011;2175;51.018;6.994;2023-08-20T01:51:24;17.10;;;10.63;;
4323;SDS011;2175;51.018;6.994;2023-08-20T01:53:50;13.27;;;9.90;;
4323;SDS011;2175;51.018;6.994;2023-08-20T01:56:16;11.63;;;9.50;;
4323;SDS011;2175;51.018;6.994;2023-08-20T01:58:43;13.37;;;9.80;;
4323;SDS011;2175;51.018;6.994;2023-08-20T02:01:09;13.83;;;9.50;;
4323;SDS011;2175;51.018;6.994;2023-08-20T02:03:35;12.47;;;9.90;;
4323;SDS011;2175;51.018;6.994;2023-08-20T02:06:03;12.50;;;10.10;;
4323;SDS011;2175;51.018;6.994;2023-08-20T02:08:29;12.93;;;9.80;;
4323;SDS011;2175;51.018;6.994;2023-08-20T02:11:04;13.67;;;10.17;;
4323;SDS011;2175;51.018;6.994;2023-08-20T02:13:30;15.73;;;10.27;;
4323;SDS011;2175;51.018;6.994;2023-08-20T02:16:03;16.27;;;10.50;;
4323;SDS011;2175;51.018;6.994;2023-08-20T02:18:30;16.10;;;10.13;;
4323;SDS011;2175;51.018;6.994;2023-08-20T02:20:56;12.13;;;9.20;;
4323;SDS011;2175;51.018;6.994;2023-08-20T02:23:22;11.03;;;9.90;;
4323;SDS011;2175;51.018;6.994;2023-08-20T02:25:48;15.40;;;10.00;;
4323;SDS011;2175;51.018;6.994;2023-08-20T02:28:14;16.37;;;11.77;;
4323;SDS011;2175;51.018;6.994;2023-08-20T02:30:41;15.70;;;11.00;;
4323;SDS011;2175;51.018;6.994;2023-08-20T02:33:07;9.87;;;8.73;;
4323;SDS011;2175;51.018;6.994;2023-08-20T02:35:33;11.93;;;9.40;;
4323;SDS011;2175;51.018;6.994;2023-08-20T02:37:59;12.73;;;9.77;;
4323;SDS011;2175;51.018;6.994;2023-08-20T02:40:25;13.80;;;9.50;;
4323;SDS011;2175;51.018;6.994;2023-08-20T02:42:51;11.80;;;10.60;;
4323;SDS011;2175;51.018;6.994;2023-08-20T02:45:17;13.30;;;10.50;;
4323;SDS011;2175;51.018;6.994;2023-08-20T02:47:43;13.23;;;9.80;;
4323;SDS011;2175;51.018;6.994;2023-08-20T02:50:09;9.90;;;8.80;;
4323;SDS011;2175;51.018;6.994;2023-08-20T02:52:35;12.70;;;10.97;;
4323;SDS011;2175;51.018;6.994;2023-08-20T02:55:01;15.43;;;10.20;;
4323;SDS011;2175;51.018;6.994;2023-08-20T02:57:29;14.10;;;10.70;;
4323;SDS011;2175;51.018;6.994;2023-08-20T02:59:56;13.93;;;9.50;;
4323;SDS011;2175;51.018;6.994;2023-08-20T03:02:22;13.27;;;9.90;;
4323;SDS011;2175;51.018;6.994;2023-08-20T03:04:48;16.13;;;11.80;;
4323;SDS011;2175;51.018;6.994;2023-08-20T03:07:14;13.10;;;11.57;;
4323;SDS011;2175;51.018;6.994;2023-08-20T03:09:40;13.73;;;10.70;;
4323;SDS011;2175;51.018;6.994;2023-08-20T03:12:06;13.10;;;10.53;;
4323;SDS011;2175;51.018;6.994;2023-08-20T03:14:32;13.53;;;9.47;;
4323;SDS011;2175;51.018;6.994;2023-08-20T03:16:58;11.33;;;9.77;;
4323;SDS011;2175;51.018;6.994;2023-08-20T03:19:24;16.63;;;9.90;;
4323;SDS011;2175;51.018;6.994;2023-08-20T03:21:50;13.87;;;9.90;;
4323;SDS011;2175;51.018;6.994;2023-08-20T03:24:16;11.10;;;9.10;;
4323;SDS011;2175;51.018;6.994;2023-08-20T03:26:42;13.03;;;9.60;;
4323;SDS011;2175;51.018;6.994;2023-08-20T03:29:08;11.80;;;9.33;;
4323;SDS011;2175;51.018;6.994;2023-08-20T03:31:34;12.43;;;9.93;;
4323;SDS011;2175;51.018;6.994;2023-08-20T03:34:00;19.23;;;10.70;;
4323;SDS011;2175;51.018;6.994;2023-08-20T03:36:26;12.00;;;9.80;;
4323;SDS011;2175;51.018;6.994;2023-08-20T03:38:51;10.47;;;9.37;;
4323;SDS011;2175;51.018;6.994;2023-08-20T03:41:17;12.37;;;9.63;;
4323;SDS011;2175;51.018;6.994;2023-08-20T03:43:44;14.60;;;10.53;;
4323;SDS011;2175;51.018;6.994;2023-08-20T03:46:09;14.80;;;10.13;;
4323;SDS011;2175;51.018;6.994;2023-08-20T03:48:35;13.57;;;10.07;;
4323;SDS011;2175;51.018;6.994;2023-08-20T03:51:01;16.80;;;10.40;;
4323;SDS011;2175;51.018;6.994;2023-08-20T03:53:27;11.97;;;10.27;;
4323;SDS011;2175;51.018;6.994;2023-08-20T03:55:53;11.27;;;10.10;;
4323;SDS011;2175;51.018;6.994;2023-08-20T03:58:19;11.07;;;9.97;;
4323;SDS011;2175;51.018;6.994;2023-08-20T04:00:45;9.63;;;8.63;;
4323;SDS011;2175;51.018;6.994;2023-08-20T04:03:11;14.97;;;10.57;;
4323;SDS011;2175;51.018;6.994;2023-08-20T04:05:38;13.80;;;10.47;;
4323;SDS011;2175;51.018;6.994;2023-08-20T04:08:05;10.97;;;9.80;;
4323;SDS011;2175;51.018;6.994;2023-08-20T04:10:31;12.30;;;10.30;;
4323;SDS011;2175;51.018;6.994;2023-08-20T04:12:58;12.97;;;10.10;;
4323;SDS011;2175;51.018;6.994;2023-08-20T04:15:24;15.50;;;11.40;;
4323;SDS011;2175;51.018;6.994;2023-08-20T04:17:50;14.43;;;10.73;;
4323;SDS011;2175;51.018;6.994;2023-08-20T04:20:16;19.10;;;10.90;;
4323;SDS011;2175;51.018;6.994;2023-08-20T04:22:42;13.20;;;10.93;;
4323;SDS011;2175;51.018;6.994;2023-08-20T04:25:08;12.87;;;10.60;;
4323;SDS011;2175;51.018;6.994;2023-08-20T04:27:34;15.43;;;10.87;;
4323;SDS011;2175;51.018;6.994;2023-08-20T04:30:00;13.83;;;10.20;;
4323;SDS011;2175;51.018;6.994;2023-08-20T04:32:26;15.37;;;9.83;;
4323;SDS011;2175;51.018;6.994;2023-08-20T04:34:52;17.00;;;9.90;;
4323;SDS011;2175;51.018;6.994;2023-08-20T04:37:19;16.33;;;11.67;;
4323;SDS011;2175;51.018;6.994;2023-08-20T04:39:45;10.67;;;8.83;;
4323;SDS011;2175;51.018;6.994;2023-08-20T04:42:11;13.67;;;10.53;;
4323;SDS011;2175;51.018;6.994;2023-08-20T04:44:37;14.40;;;9.60;;
4323;SDS011;2175;51.018;6.994;2023-08-20T04:47:03;19.47;;;9.90;;
4323;SDS011;2175;51.018;6.994;2023-08-20T04:49:29;15.83;;;10.37;;
4323;SDS011;2175;51.018;6.994;2023-08-20T04:51:55;13.47;;;10.70;;
4323;SDS011;2175;51.018;6.994;2023-08-20T04:54:21;20.27;;;10.20;;
4323;SDS011;2175;51.018;6.994;2023-08-20T04:56:47;14.70;;;10.20;;
4323;SDS011;2175;51.018;6.994;2023-08-20T04:59:13;22.90;;;11.00;;
4323;SDS011;2175;51.018;6.994;2023-08-20T05:01:39;15.57;;;10.50;;
4323;SDS011;2175;51.018;6.994;2023-08-20T05:04:05;13.50;;;9.70;;
4323;SDS011;2175;51.018;6.994;2023-08-20T05:06:31;13.00;;;9.80;;
4323;SDS011;2175;51.018;6.994;2023-08-20T05:08:57;11.50;;;10.27;;
4323;SDS011;2175;51.018;6.994;2023-08-20T05:11:23;12.10;;;9.43;;
4323;SDS011;2175;51.018;6.994;2023-08-20T05:13:49;15.23;;;10.53;;
4323;SDS011;2175;51.018;6.994;2023-08-20T05:16:15;17.77;;;10.47;;
4323;SDS011;2175;51.018;6.994;2023-08-20T05:18:41;13.10;;;9.53;;
4323;SDS011;2175;51.018;6.994;2023-08-20T05:21:08;11.27;;;10.17;;
4323;SDS011;2175;51.018;6.994;2023-08-20T05:23:36;16.10;;;10.07;;
4323;SDS011;2175;51.018;6.994;2023-08-20T05:26:02;11.77;;;10.27;;
4323;SDS011;2175;51.018;6.994;2023-08-20T05:28:28;13.60;;;11.17;;
4323;SDS011;2175;51.018;6.994;2023-08-20T05:30:57;16.23;;;11.00;;
4323;SDS011;2175;51.018;6.994;2023-08-20T05:33:24;16.13;;;11.03;;
4323;SDS011;2175;51.018;6.994;2023-08-20T05:35:50;16.43;;;10.90;;
4323;SDS011;2175;51.018;6.994;2023-08-20T05:38:16;12.87;;;9.63;;
4323;SDS011;2175;51.018;6.994;2023-08-20T05:40:42;14.00;;;11.03;;
4323;SDS011;2175;51.018;6.994;2023-08-20T05:43:08;12.40;;;11.00;;
4323;SDS011;2175;51.018;6.994;2023-08-20T05:45:35;14.40;;;11.03;;
4323;SDS011;2175;51.018;6.994;2023-08-20T05:48:01;15.00;;;10.53;;
4323;SDS011;2175;51.018;6.994;2023-08-20T05:50:27;14.40;;;11.37;;
4323;SDS011;2175;51.018;6.994;2023-08-20T05:52:53;12.10;;;10.70;;
4323;SDS011;2175;51.018;6.994;2023-08-20T05:55:19;16.90;;;11.60;;
4323;SDS011;2175;51.018;6.994;2023-08-20T05:57:45;12.20;;;10.70;;
4323;SDS011;2175;51.018;6.994;2023-08-20T06:00:11;13.20;;;11.13;;
4323;SDS011;2175;51.018;6.994;2023-08-20T06:02:37;12.50;;;11.20;;
4323;SDS011;2175;51.018;6.994;2023-08-20T06:05:03;20.27;;;10.80;;
4323;SDS011;2175;51.018;6.994;2023-08-20T06:07:30;15.07;;;12.10;;
4323;SDS011;2175;51.018;6.994;2023-08-20T06:09:56;13.23;;;11.10;;
4323;SDS011;2175;51.018;6.994;2023-08-20T06:12:22;12.80;;;11.40;;
4323;SDS011;2175;51.018;6.994;2023-08-20T06:14:48;13.93;;;11.50;;
4323;SDS011;2175;51.018;6.994;2023-08-20T06:17:14;13.10;;;11.17;;
4323;SDS011;2175;51.018;6.994;2023-08-20T06:19:40;13.70;;;11.07;;
4323;SDS011;2175;51.018;6.994;2023-08-20T06:22:06;13.73;;;11.13;;
4323;SDS011;2175;51.018;6.994;2023-08-20T06:24:32;14.23;;;12.40;;
4323;SDS011;2175;51.018;6.994;2023-08-20T06:26:58;14.43;;;12.10;;
4323;SDS011;2175;51.018;6.994;2023-08-20T06:29:24;13.97;;;12.47;;
4323;SDS011;2175;51.018;6.994;2023-08-20T06:31:50;21.27;;;13.57;;
4323;SDS011;2175;51.018;6.994;2023-08-20T06:34:16;15.33;;;13.43;;
4323;SDS011;2175;51.018;6.994;2023-08-20T06:36:42;16.30;;;13.40;;
4323;SDS011;2175;51.018;6.994;2023-08-20T06:39:09;16.60;;;13.57;;
4323;SDS011;2175;51.018;6.994;2023-08-20T06:41:35;14.67;;;13.23;;
4323;SDS011;2175;51.018;6.994;2023-08-20T06:44:01;19.03;;;14.10;;
4323;SDS011;2175;51.018;6.994;2023-08-20T06:46:27;24.67;;;19.40;;
4323;SDS011;2175;51.018;6.994;2023-08-20T06:48:53;21.50;;;18.60;;
4323;SDS011;2175;51.018;6.994;2023-08-20T06:51:20;29.33;;;23.63;;
4323;SDS011;2175;51.018;6.994;2023-08-20T06:53:47;29.50;;;26.40;;
4323;SDS011;2175;51.018;6.994;2023-08-20T06:56:13;28.20;;;25.20;;
4323;SDS011;2175;51.018;6.994;2023-08-20T06:58:39;31.87;;;28.47;;
4323;SDS011;2175;51.018;6.994;2023-08-20T07:01:06;38.43;;;34.37;;
4323;SDS011;2175;51.018;6.994;2023-08-20T07:03:35;41.87;;;37.30;;
4323;SDS011;2175;51.018;6.994;2023-08-20T07:06:01;45.33;;;39.70;;
4323;SDS011;2175;51.018;6.994;2023-08-20T07:08:28;42.70;;;38.30;;
4323;SDS011;2175;51.018;6.994;2023-08-20T07:10:53;46.80;;;37.23;;
4323;SDS011;2175;51.018;6.994;2023-08-20T07:13:20;46.00;;;37.43;;
4323;SDS011;2175;51.018;6.994;2023-08-20T07:15:46;44.07;;;33.83;;
4323;SDS011;2175;51.018;6.994;2023-08-20T07:18:12;43.60;;;33.60;;
4323;SDS011;2175;51.018;6.994;2023-08-20T07:20:39;54.57;;;37.77;;
4323;SDS011;2175;51.018;6.994;2023-08-20T07:23:06;47.37;;;34.43;;
4323;SDS011;2175;51.018;6.994;2023-08-20T07:25:32;50.47;;;35.87;;
4323;SDS011;2175;51.018;6.994;2023-08-20T07:27:58;39.60;;;30.53;;
4323;SDS011;2175;51.018;6.994;2023-08-20T07:30:27;33.00;;;26.40;;
4323;SDS011;2175;51.018;6.994;2023-08-20T07:32:54;24.93;;;19.63;;
4323;SDS011;2175;51.018;6.994;2023-08-20T07:35:20;28.90;;;19.20;;
4323;SDS011;2175;51.018;6.994;2023-08-20T07:37:46;21.80;;;16.27;;
4323;SDS011;2175;51.018;6.994;2023-08-20T07:40:12;20.47;;;16.57;;
4323;SDS011;2175;51.018;6.994;2023-08-20T07:42:42;23.10;;;18.23;;
4323;SDS011;2175;51.018;6.994;2023-08-20T07:45:08;24.10;;;16.17;;
4323;SDS011;2175;51.018;6.994;2023-08-20T07:47:37;27.63;;;17.63;;
4323;SDS011;2175;51.018;6.994;2023-08-20T07:50:04;30.03;;;17.67;;
4323;SDS011;2175;51.018;6.994;2023-08-20T07:52:33;27.37;;;19.67;;
4323;SDS011;2175;51.018;6.994;2023-08-20T07:54:59;29.83;;;19.60;;
4323;SDS011;2175;51.018;6.994;2023-08-20T07:57:25;25.90;;;18.53;;
4323;SDS011;2175;51.018;6.994;2023-08-20T07:59:51;20.37;;;16.73;;
4323;SDS011;2175;51.018;6.994;2023-08-20T08:02:18;25.10;;;19.80;;
4323;SDS011;2175;51.018;6.994;2023-08-20T08:04:44;24.07;;;17.50;;
4323;SDS011;2175;51.018;6.994;2023-08-20T08:07:10;25.27;;;15.97;;
4323;SDS011;2175;51.018;6.994;2023-08-20T08:09:36;26.80;;;18.87;;
4323;SDS011;2175;51.018;6.994;2023-08-20T08:12:02;21.87;;;17.37;;
4323;SDS011;2175;51.018;6.994;2023-08-20T08:14:28;24.43;;;17.30;;
4323;SDS011;2175;51.018;6.994;2023-08-20T08:16:54;22.20;;;14.47;;
4323;SDS011;2175;51.018;6.994;2023-08-20T08:19:20;29.37;;;14.40;;
4323;SDS011;2175;51.018;6.994;2023-08-20T08:21:47;16.33;;;12.30;;
4323;SDS011;2175;51.018;6.994;2023-08-20T08:24:13;17.07;;;12.97;;
4323;SDS011;2175;51.018;6.994;2023-08-20T08:26:39;15.27;;;12.27;;
4323;SDS011;2175;51.018;6.994;2023-08-20T08:29:06;14.50;;;12.40;;
4323;SDS011;2175;51.018;6.994;2023-08-20T08:31:33;15.73;;;12.13;;
4323;SDS011;2175;51.018;6.994;2023-08-20T08:33:59;22.67;;;16.70;;
4323;SDS011;2175;51.018;6.994;2023-08-20T08:36:25;23.10;;;16.47;;
4323;SDS011;2175;51.018;6.994;2023-08-20T08:38:51;24.90;;;14.87;;
4323;SDS011;2175;51.018;6.994;2023-08-20T08:41:18;32.37;;;17.73;;
4323;SDS011;2175;51.018;6.994;2023-08-20T08:43:46;22.53;;;14.20;;
4323;SDS011;2175;51.018;6.994;2023-08-20T08:46:13;19.57;;;12.83;;
4323;SDS011;2175;51.018;6.994;2023-08-20T08:48:40;22.97;;;11.80;;
4323;SDS011;2175;51.018;6.994;2023-08-20T08:51:07;18.57;;;11.67;;
4323;SDS011;2175;51.018;6.994;2023-08-20T08:53:33;17.20;;;11.33;;
4323;SDS011;2175;51.018;6.994;2023-08-20T08:55:59;16.80;;;12.33;;
4323;SDS011;2175;51.018;6.994;2023-08-20T08:58:25;20.00;;;13.07;;
4323;SDS011;2175;51.018;6.994;2023-08-20T09:00:52;19.03;;;10.03;;
4323;SDS011;2175;51.018;6.994;2023-08-20T09:03:18;21.83;;;11.10;;
4323;SDS011;2175;51.018;6.994;2023-08-20T09:05:45;18.10;;;12.57;;
4323;SDS011;2175;51.018;6.994;2023-08-20T09:08:18;19.03;;;11.87;;
4323;SDS011;2175;51.018;6.994;2023-08-20T09:10:44;15.03;;;10.73;;
4323;SDS011;2175;51.018;6.994;2023-08-20T09:13:10;15.10;;;10.23;;
4323;SDS011;2175;51.018;6.994;2023-08-20T09:15:36;14.13;;;9.83;;
4323;SDS011;2175;51.018;6.994;2023-08-20T09:18:02;16.30;;;8.97;;
4323;SDS011;2175;51.018;6.994;2023-08-20T09:20:36;13.97;;;9.60;;
4323;SDS011;2175;51.018;6.994;2023-08-20T09:23:04;19.17;;;13.40;;
4323;SDS011;2175;51.018;6.994;2023-08-20T09:25:31;18.17;;;10.30;;
4323;SDS011;2175;51.018;6.994;2023-08-20T09:27:56;15.93;;;10.30;;
4323;SDS011;2175;51.018;6.994;2023-08-20T09:30:23;14.57;;;8.40;;
4323;SDS011;2175;51.018;6.994;2023-08-20T09:33:05;13.50;;;9.13;;
4323;SDS011;2175;51.018;6.994;2023-08-20T09:35:31;14.70;;;9.17;;
4323;SDS011;2175;51.018;6.994;2023-08-20T09:38:00;14.17;;;9.40;;
4323;SDS011;2175;51.018;6.994;2023-08-20T09:40:27;14.90;;;8.23;;
4323;SDS011;2175;51.018;6.994;2023-08-20T09:42:58;14.87;;;10.73;;
4323;SDS011;2175;51.018;6.994;2023-08-20T09:48:33;18.47;;;9.13;;
4323;SDS011;2175;51.018;6.994;2023-08-20T09:51:39;11.73;;;8.03;;
4323;SDS011;2175;51.018;6.994;2023-08-20T09:57:56;11.07;;;8.10;;
4323;SDS011;2175;51.018;6.994;2023-08-20T10:09:37;25.27;;;11.07;;
4323;SDS011;2175;51.018;6.994;2023-08-20T10:12:45;14.50;;;8.90;;
4323;SDS011;2175;51.018;6.994;2023-08-20T10:24:56;12.37;;;8.17;;
4323;SDS011;2175;51.018;6.994;2023-08-20T10:34:33;15.37;;;9.50;;
4323;SDS011;2175;51.018;6.994;2023-08-20T10:37:27;14.87;;;9.40;;
4323;SDS011;2175;51.018;6.994;2023-08-20T10:43:47;12.30;;;8.37;;
4323;SDS011;2175;51.018;6.994;2023-08-20T10:56:16;13.80;;;7.77;;
4323;SDS011;2175;51.018;6.994;2023-08-20T11:02:30;9.90;;;7.77;;
4323;SDS011;2175;51.018;6.994;2023-08-20T11:11:45;9.70;;;8.10;;
4323;SDS011;2175;51.018;6.994;2023-08-20T11:14:23;12.00;;;8.30;;
4323;SDS011;2175;51.018;6.994;2023-08-20T11:17:46;10.03;;;8.97;;
4323;SDS011;2175;51.018;6.994;2023-08-20T11:21:11;12.20;;;8.30;;
4323;SDS011;2175;51.018;6.994;2023-08-20T11:39:37;10.30;;;9.20;;
4323;SDS011;2175;51.018;6.994;2023-08-20T11:51:56;10.77;;;9.67;;
4323;SDS011;2175;51.018;6.994;2023-08-20T11:55:02;11.73;;;10.50;;
4323;SDS011;2175;51.018;6.994;2023-08-20T11:57:49;9.93;;;8.40;;
4323;SDS011;2175;51.018;6.994;2023-08-20T12:00:38;9.70;;;8.10;;
4323;SDS011;2175;51.018;6.994;2023-08-20T12:03:05;8.30;;;6.40;;
4323;SDS011;2175;51.018;6.994;2023-08-20T12:05:32;8.97;;;7.80;;
4323;SDS011;2175;51.018;6.994;2023-08-20T12:08:02;8.57;;;6.67;;
4323;SDS011;2175;51.018;6.994;2023-08-20T12:10:28;10.27;;;6.80;;
4323;SDS011;2175;51.018;6.994;2023-08-20T12:12:55;8.00;;;7.17;;
4323;SDS011;2175;51.018;6.994;2023-08-20T12:15:21;8.60;;;7.20;;
4323;SDS011;2175;51.018;6.994;2023-08-20T12:18:01;8.80;;;7.13;;
4323;SDS011;2175;51.018;6.994;2023-08-20T12:20:29;10.23;;;7.07;;
4323;SDS011;2175;51.018;6.994;2023-08-20T12:23:00;6.70;;;6.03;;
4323;SDS011;2175;51.018;6.994;2023-08-20T12:25:29;8.50;;;7.00;;
4323;SDS011;2175;51.018;6.994;2023-08-20T12:27:56;13.83;;;8.27;;
4323;SDS011;2175;51.018;6.994;2023-08-20T12:30:22;9.97;;;7.20;;
4323;SDS011;2175;51.018;6.994;2023-08-20T12:32:48;9.93;;;7.83;;
4323;SDS011;2175;51.018;6.994;2023-08-20T12:35:14;11.47;;;7.67;;
4323;SDS011;2175;51.018;6.994;2023-08-20T12:37:40;14.53;;;8.53;;
4323;SDS011;2175;51.018;6.994;2023-08-20T12:40:06;13.13;;;8.80;;
4323;SDS011;2175;51.018;6.994;2023-08-20T12:42:36;19.07;;;9.80;;
4323;SDS011;2175;51.018;6.994;2023-08-20T12:45:03;15.27;;;9.77;;
4323;SDS011;2175;51.018;6.994;2023-08-20T12:47:30;17.97;;;9.80;;
4323;SDS011;2175;51.018;6.994;2023-08-20T12:49:56;11.73;;;8.40;;
4323;SDS011;2175;51.018;6.994;2023-08-20T12:52:21;9.30;;;7.90;;
4323;SDS011;2175;51.018;6.994;2023-08-20T12:54:47;11.30;;;7.60;;
4323;SDS011;2175;51.018;6.994;2023-08-20T12:57:13;7.73;;;6.93;;
4323;SDS011;2175;51.018;6.994;2023-08-20T12:59:39;9.27;;;7.43;;
4323;SDS011;2175;51.018;6.994;2023-08-20T13:02:08;11.30;;;7.70;;
4323;SDS011;2175;51.018;6.994;2023-08-20T13:04:34;7.50;;;6.70;;
4323;SDS011;2175;51.018;6.994;2023-08-20T13:07:02;9.60;;;7.67;;
4323;SDS011;2175;51.018;6.994;2023-08-20T13:09:29;9.53;;;6.77;;
4323;SDS011;2175;51.018;6.994;2023-08-20T13:11:56;10.70;;;7.33;;
4323;SDS011;2175;51.018;6.994;2023-08-20T13:14:22;12.70;;;8.03;;
4323;SDS011;2175;51.018;6.994;2023-08-20T13:16:49;9.90;;;6.60;;
4323;SDS011;2175;51.018;6.994;2023-08-20T13:19:15;8.23;;;7.37;;
4323;SDS011;2175;51.018;6.994;2023-08-20T13:21:41;9.60;;;6.53;;
4323;SDS011;2175;51.018;6.994;2023-08-20T13:24:07;10.00;;;6.97;;
4323;SDS011;2175;51.018;6.994;2023-08-20T13:26:34;9.43;;;6.47;;
4323;SDS011;2175;51.018;6.994;2023-08-20T13:29:00;8.17;;;6.60;;
4323;SDS011;2175;51.018;6.994;2023-08-20T13:31:28;6.50;;;5.70;;
4323;SDS011;2175;51.018;6.994;2023-08-20T13:33:54;8.43;;;6.60;;
4323;SDS011;2175;51.018;6.994;2023-08-20T13:36:20;7.67;;;6.70;;
4323;SDS011;2175;51.018;6.994;2023-08-20T13:38:46;7.37;;;6.63;;
4323;SDS011;2175;51.018;6.994;2023-08-20T13:41:12;9.37;;;6.53;;
4323;SDS011;2175;51.018;6.994;2023-08-20T13:43:39;8.53;;;6.00;;
4323;SDS011;2175;51.018;6.994;2023-08-20T13:46:05;9.23;;;6.13;;
4323;SDS011;2175;51.018;6.994;2023-08-20T13:48:31;8.37;;;6.23;;
4323;SDS011;2175;51.018;6.994;2023-08-20T13:50:57;6.83;;;5.97;;
4323;SDS011;2175;51.018;6.994;2023-08-20T13:53:23;9.73;;;5.70;;
4323;SDS011;2175;51.018;6.994;2023-08-20T13:55:51;7.60;;;5.70;;
4323;SDS011;2175;51.018;6.994;2023-08-20T13:58:18;6.47;;;5.67;;
4323;SDS011;2175;51.018;6.994;2023-08-20T14:00:44;9.17;;;6.70;;
4323;SDS011;2175;51.018;6.994;2023-08-20T14:03:10;15.23;;;6.97;;
4323;SDS011;2175;51.018;6.994;2023-08-20T14:05:36;9.00;;;6.40;;
4323;SDS011;2175;51.018;6.994;2023-08-20T14:08:02;10.27;;;6.93;;
4323;SDS011;2175;51.018;6.994;2023-08-20T14:10:28;13.90;;;7.10;;
4323;SDS011;2175;51.018;6.994;2023-08-20T14:12:54;9.00;;;6.10;;
4323;SDS011;2175;51.018;6.994;2023-08-20T14:15:21;6.87;;;6.17;;
4323;SDS011;2175;51.018;6.994;2023-08-20T14:17:47;8.10;;;5.37;;
4323;SDS011;2175;51.018;6.994;2023-08-20T14:20:13;7.23;;;5.90;;
4323;SDS011;2175;51.018;6.994;2023-08-20T14:22:39;9.63;;;6.50;;
4323;SDS011;2175;51.018;6.994;2023-08-20T14:25:05;16.40;;;8.57;;
4323;SDS011;2175;51.018;6.994;2023-08-20T14:27:31;12.50;;;7.43;;
4323;SDS011;2175;51.018;6.994;2023-08-20T14:29:57;8.60;;;6.70;;
4323;SDS011;2175;51.018;6.994;2023-08-20T14:32:24;8.87;;;7.27;;
4323;SDS011;2175;51.018;6.994;2023-08-20T14:34:50;10.17;;;6.70;;
4323;SDS011;2175;51.018;6.994;2023-08-20T14:37:16;11.10;;;7.40;;
4323;SDS011;2175;51.018;6.994;2023-08-20T14:39:42;16.20;;;8.90;;
4323;SDS011;2175;51.018;6.994;2023-08-20T14:42:08;13.20;;;7.57;;
4323;SDS011;2175;51.018;6.994;2023-08-20T14:44:34;7.20;;;6.33;;
4323;SDS011;2175;51.018;6.994;2023-08-20T14:47:00;7.03;;;5.77;;
4323;SDS011;2175;51.018;6.994;2023-08-20T14:49:26;7.00;;;5.90;;
4323;SDS011;2175;51.018;6.994;2023-08-20T14:51:53;8.67;;;5.60;;
4323;SDS011;2175;51.018;6.994;2023-08-20T14:54:20;11.10;;;7.77;;
4323;SDS011;2175;51.018;6.994;2023-08-20T14:56:45;9.63;;;6.60;;
4323;SDS011;2175;51.018;6.994;2023-08-20T14:59:12;8.60;;;6.50;;
4323;SDS011;2175;51.018;6.994;2023-08-20T15:01:38;9.27;;;6.30;;
4323;SDS011;2175;51.018;6.994;2023-08-20T15:04:04;9.00;;;6.63;;
4323;SDS011;2175;51.018;6.994;2023-08-20T15:06:31;13.30;;;6.87;;
4323;SDS011;2175;51.018;6.994;2023-08-20T15:08:57;12.77;;;7.00;;
4323;SDS011;2175;51.018;6.994;2023-08-20T15:11:23;6.03;;;5.23;;
4323;SDS011;2175;51.018;6.994;2023-08-20T15:13:50;7.10;;;5.47;;
4323;SDS011;2175;51.018;6.994;2023-08-20T15:16:17;7.77;;;5.67;;
4323;SDS011;2175;51.018;6.994;2023-08-20T15:21:11;8.23;;;7.13;;
4323;SDS011;2175;51.018;6.994;2023-08-20T15:23:37;7.83;;;6.50;;
4323;SDS011;2175;51.018;6.994;2023-08-20T15:26:03;8.50;;;6.63;;
4323;SDS011;2175;51.018;6.994;2023-08-20T15:28:29;8.20;;;6.20;;
4323;SDS011;2175;51.018;6.994;2023-08-20T15:30:56;10.10;;;6.10;;
4323;SDS011;2175;51.018;6.994;2023-08-20T15:33:23;13.00;;;6.10;;
4323;SDS011;2175;51.018;6.994;2023-08-20T15:35:49;7.63;;;5.70;;
4323;SDS011;2175;51.018;6.994;2023-08-20T15:38:15;10.27;;;6.23;;
4323;SDS011;2175;51.018;6.994;2023-08-20T15:40:41;6.40;;;5.67;;
4323;SDS011;2175;51.018;6.994;2023-08-20T15:43:07;15.63;;;8.00;;
4323;SDS011;2175;51.018;6.994;2023-08-20T15:45:33;11.03;;;7.40;;
4323;SDS011;2175;51.018;6.994;2023-08-20T15:47:59;10.33;;;7.27;;
4323;SDS011;2175;51.018;6.994;2023-08-20T15:50:25;9.43;;;6.97;;
4323;SDS011;2175;51.018;6.994;2023-08-20T15:52:53;9.67;;;7.30;;
4323;SDS011;2175;51.018;6.994;2023-08-20T15:55:19;12.13;;;7.63;;
4323;SDS011;2175;51.018;6.994;2023-08-20T15:57:45;9.40;;;6.60;;
4323;SDS011;2175;51.018;6.994;2023-08-20T16:00:11;10.33;;;7.83;;
4323;SDS011;2175;51.018;6.994;2023-08-20T16:02:43;14.37;;;7.23;;
4323;SDS011;2175;51.018;6.994;2023-08-20T16:05:11;9.80;;;7.17;;
4323;SDS011;2175;51.018;6.994;2023-08-20T16:07:38;10.83;;;7.50;;
4323;SDS011;2175;51.018;6.994;2023-08-20T16:10:04;20.33;;;7.83;;
4323;SDS011;2175;51.018;6.994;2023-08-20T16:12:31;13.47;;;7.47;;
4323;SDS011;2175;51.018;6.994;2023-08-20T16:14:57;11.13;;;6.50;;
4323;SDS011;2175;51.018;6.994;2023-08-20T16:17:23;16.73;;;8.00;;
4323;SDS011;2175;51.018;6.994;2023-08-20T16:19:49;15.50;;;7.53;;
4323;SDS011;2175;51.018;6.994;2023-08-20T16:22:15;7.67;;;6.33;;
4323;SDS011;2175;51.018;6.994;2023-08-20T16:24:41;8.77;;;5.80;;
4323;SDS011;2175;51.018;6.994;2023-08-20T16:27:07;10.67;;;6.83;;
4323;SDS011;2175;51.018;6.994;2023-08-20T16:29:33;10.00;;;7.03;;
4323;SDS011;2175;51.018;6.994;2023-08-20T16:31:59;17.63;;;5.80;;
4323;SDS011;2175;51.018;6.994;2023-08-20T16:34:25;7.30;;;5.80;;